createdAt,value
2018-11-21T00:00:45.607Z,39.23
2018-11-21T00:03:14.036Z,40.10
2018-11-21T00:05:42.498Z,40.77
2018-11-21T00:08:10.952Z,46.10
2018-11-21T00:10:39.360Z,44.97
2018-11-21T00:13:07.796Z,40.50
2018-11-21T00:15:36.210Z,37.03
2018-11-21T00:18:04.639Z,36.73
2018-11-21T00:20:33.120Z,38.83
2018-11-21T00:23:01.541Z,35.10
2018-11-21T00:25:30.148Z,37.63
2018-11-21T00:27:58.583Z,36.87
2018-11-21T00:30:27.083Z,45.47
2018-11-21T00:32:55.526Z,42.17
2018-11-21T00:35:24.008Z,38.27
2018-11-21T00:37:52.467Z,41.07
2018-11-21T00:40:20.923Z,44.53
2018-11-21T00:42:49.342Z,46.53
2018-11-21T00:45:17.791Z,35.70
2018-11-21T00:47:46.410Z,41.00
2018-11-21T00:50:14.857Z,43.87
2018-11-21T00:52:43.299Z,44.80
2018-11-21T00:55:11.717Z,46.43
2018-11-21T00:57:40.306Z,42.30
2018-11-21T01:00:10.418Z,38.83
2018-11-21T01:02:38.887Z,41.53
2018-11-21T01:05:07.612Z,47.63
2018-11-21T01:07:36.079Z,47.07
2018-11-21T01:10:04.522Z,47.40
2018-11-21T01:12:32.985Z,47.57
2018-11-21T01:15:01.433Z,46.40
2018-11-21T01:17:30.098Z,47.07
2018-11-21T01:19:58.534Z,44.43
2018-11-21T01:22:27.024Z,41.00
2018-11-21T01:24:55.415Z,49.03
2018-11-21T01:27:23.840Z,46.20
2018-11-21T01:29:52.330Z,45.60
2018-11-21T01:32:20.768Z,39.17
2018-11-21T01:34:49.182Z,41.57
2018-11-21T01:37:17.688Z,43.60
2018-11-21T01:39:46.106Z,42.60
2018-11-21T01:42:14.564Z,39.47
2018-11-21T01:44:43.052Z,43.73
2018-11-21T01:47:11.458Z,43.03
2018-11-21T01:49:39.923Z,42.77
2018-11-21T01:52:08.352Z,39.27
2018-11-21T01:54:36.778Z,46.07
2018-11-21T01:57:05.591Z,43.17
2018-11-21T01:59:34.034Z,46.30
2018-11-21T02:02:02.632Z,34.43
2018-11-21T02:04:31.019Z,40.80
2018-11-21T02:06:59.467Z,34.30
2018-11-21T02:09:27.905Z,42.40
2018-11-21T02:11:56.333Z,44.30
2018-11-21T02:14:24.811Z,38.93
2018-11-21T02:16:53.319Z,41.77
2018-11-21T02:19:21.732Z,47.63
2018-11-21T02:21:50.151Z,42.97
2018-11-21T02:24:18.576Z,45.97
2018-11-21T02:26:47.121Z,40.30
2018-11-21T02:29:15.569Z,35.60
2018-11-21T02:31:44.013Z,39.87
2018-11-21T02:34:12.733Z,45.27
2018-11-21T02:36:41.171Z,43.03
2018-11-21T02:39:10.638Z,45.07
2018-11-21T02:41:39.077Z,42.30
2018-11-21T02:44:07.576Z,43.90
2018-11-21T02:46:36.053Z,41.43
2018-11-21T02:49:04.750Z,45.47
2018-11-21T02:51:33.374Z,48.57
2018-11-21T02:54:01.796Z,46.30
2018-11-21T02:57:07.310Z,45.33
2018-11-21T02:59:35.770Z,40.93
2018-11-21T03:02:04.355Z,44.10
2018-11-21T03:04:32.814Z,42.13
2018-11-21T03:07:01.280Z,46.60
2018-11-21T03:09:29.720Z,41.00
2018-11-21T03:11:58.176Z,41.03
2018-11-21T03:14:27.109Z,42.00
2018-11-21T03:16:57.765Z,38.40
2018-11-21T03:19:26.478Z,38.57
2018-11-21T03:21:54.971Z,37.33
2018-11-21T03:24:23.438Z,39.70
2018-11-21T03:26:52.446Z,37.93
2018-11-21T03:29:21.193Z,34.90
2018-11-21T03:31:49.607Z,42.93
2018-11-21T03:34:18.045Z,37.47
2018-11-21T03:36:50.707Z,33.63
2018-11-21T03:39:20.748Z,34.97
2018-11-21T03:41:49.184Z,39.53
2018-11-21T03:44:17.647Z,41.77
2018-11-21T03:46:47.304Z,39.40
2018-11-21T03:49:18.487Z,40.90
2018-11-21T03:51:46.991Z,44.50
2018-11-21T03:54:15.493Z,34.80
2018-11-21T03:56:43.857Z,38.47
2018-11-21T03:59:12.590Z,44.23
2018-11-21T04:01:41.207Z,35.80
2018-11-21T04:04:10.010Z,42.33
2018-11-21T04:06:38.450Z,44.80
2018-11-21T04:09:11.480Z,44.00
2018-11-21T04:11:39.845Z,41.50
2018-11-21T04:14:08.871Z,46.33
2018-11-21T04:16:37.392Z,49.00
2018-11-21T04:19:05.872Z,46.50
2018-11-21T04:21:34.575Z,40.53
2018-11-21T04:24:02.983Z,50.47
2018-11-21T04:26:31.462Z,42.50
2018-11-21T04:28:59.938Z,42.13
2018-11-21T04:31:28.386Z,45.67
2018-11-21T04:33:56.816Z,43.13
2018-11-21T04:36:25.266Z,39.73
2018-11-21T04:38:53.727Z,48.20
2018-11-21T04:41:22.108Z,44.37
2018-11-21T04:43:50.605Z,45.77
2018-11-21T04:46:19.030Z,42.50
2018-11-21T04:48:47.450Z,48.03
2018-11-21T04:51:15.907Z,45.83
2018-11-21T04:53:44.374Z,45.07
2018-11-21T04:56:12.805Z,48.57
2018-11-21T04:58:41.266Z,47.27
2018-11-21T05:01:09.682Z,46.40
2018-11-21T05:03:38.117Z,44.87
2018-11-21T05:06:06.865Z,44.63
2018-11-21T05:08:35.307Z,46.30
2018-11-21T05:11:03.725Z,44.07
2018-11-21T05:13:32.415Z,49.57
2018-11-21T05:16:00.819Z,49.07
2018-11-21T05:18:29.267Z,50.57
2018-11-21T05:20:57.769Z,47.53
2018-11-21T05:23:26.181Z,45.00
2018-11-21T05:25:54.937Z,49.63
2018-11-21T05:28:23.403Z,49.37
2018-11-21T05:30:51.828Z,50.93
2018-11-21T05:33:20.244Z,48.27
2018-11-21T05:35:48.752Z,51.40
2018-11-21T05:38:17.184Z,45.53
2018-11-21T05:40:45.614Z,43.77
2018-11-21T05:43:14.107Z,41.53
2018-11-21T05:45:42.543Z,46.00
2018-11-21T05:48:10.996Z,49.87
2018-11-21T05:50:39.400Z,50.67
2018-11-21T05:53:08.167Z,51.53
2018-11-21T05:55:36.624Z,46.90
2018-11-21T05:58:05.374Z,47.70
2018-11-21T06:00:33.774Z,49.33
2018-11-21T06:03:02.207Z,49.30
2018-11-21T06:05:33.620Z,49.47
2018-11-21T06:08:02.033Z,51.57
2018-11-21T06:10:34.051Z,53.17
2018-11-21T06:13:06.863Z,46.10
2018-11-21T06:15:35.404Z,50.20
2018-11-21T06:20:57.065Z,52.77
2018-11-21T06:23:25.647Z,56.53
2018-11-21T06:25:54.111Z,52.07
2018-11-21T06:28:22.621Z,57.63
2018-11-21T06:30:51.109Z,57.30
2018-11-21T06:33:19.543Z,51.00
2018-11-21T06:35:48.028Z,50.97
2018-11-21T06:38:16.480Z,47.40
2018-11-21T06:40:44.943Z,53.13
2018-11-21T06:43:13.409Z,51.33
2018-11-21T06:45:41.863Z,55.83
2018-11-21T06:48:10.316Z,57.97
2018-11-21T06:50:39.087Z,47.47
2018-11-21T06:53:07.704Z,58.63
2018-11-21T06:55:36.142Z,51.23
2018-11-21T06:58:04.632Z,46.03
2018-11-21T07:00:33.059Z,53.83
2018-11-21T07:03:01.501Z,53.23
2018-11-21T07:05:29.984Z,54.47
2018-11-21T07:08:01.722Z,60.67
2018-11-21T07:10:30.390Z,53.43
2018-11-21T07:12:58.859Z,56.60
2018-11-21T07:15:27.280Z,50.47
2018-11-21T07:17:55.714Z,53.57
2018-11-21T07:20:24.172Z,45.13
2018-11-21T07:22:52.705Z,50.50
2018-11-21T07:25:22.694Z,48.47
2018-11-21T07:27:51.118Z,53.73
2018-11-21T07:30:19.919Z,53.13
2018-11-21T07:32:48.340Z,46.17
2018-11-21T07:35:18.148Z,50.63
2018-11-21T07:37:45.972Z,54.50
2018-11-21T07:40:15.284Z,50.93
2018-11-21T07:42:43.906Z,49.73
2018-11-21T07:45:13.884Z,49.10
2018-11-21T07:47:42.964Z,47.37
2018-11-21T07:50:17.265Z,46.37
2018-11-21T07:52:45.686Z,43.63
2018-11-21T07:55:14.435Z,49.93
2018-11-21T07:57:47.155Z,46.60
2018-11-21T08:01:17.605Z,46.37
2018-11-21T08:04:14.454Z,48.40
2018-11-21T08:06:48.852Z,45.67
2018-11-21T08:09:35.275Z,47.57
2018-11-21T08:12:21.309Z,46.67
2018-11-21T08:15:19.471Z,38.50
2018-11-21T08:18:09.798Z,34.27
2018-11-21T08:21:12.717Z,46.33
2018-11-21T08:24:15.533Z,37.40
2018-11-21T08:27:05.794Z,42.93
2018-11-21T08:29:34.423Z,37.23
2018-11-21T08:32:04.332Z,48.73
2018-11-21T08:34:32.770Z,45.93
2018-11-21T08:37:01.386Z,45.17
2018-11-21T08:39:29.818Z,46.27
2018-11-21T08:41:58.268Z,42.80
2018-11-21T08:44:26.722Z,51.23
2018-11-21T08:46:55.128Z,46.23
2018-11-21T08:49:23.598Z,44.40
2018-11-21T08:51:52.055Z,45.77
2018-11-21T08:54:20.487Z,47.93
2018-11-21T08:56:48.941Z,45.57
2018-11-21T08:59:17.544Z,43.43
2018-11-21T09:01:46.015Z,47.70
2018-11-21T09:04:14.820Z,39.77
2018-11-21T09:06:43.255Z,41.03
2018-11-21T09:09:11.702Z,38.03
2018-11-21T09:11:40.182Z,43.57
2018-11-21T09:14:08.612Z,43.77
2018-11-21T09:16:37.095Z,48.90
2018-11-21T09:19:05.624Z,42.90
2018-11-21T09:21:34.077Z,41.20
2018-11-21T09:24:02.553Z,42.13
2018-11-21T09:26:31.385Z,36.93
2018-11-21T09:28:59.835Z,45.83
2018-11-21T09:31:28.357Z,41.67
2018-11-21T09:33:56.868Z,44.60
2018-11-21T09:36:25.389Z,43.37
2018-11-21T09:38:53.770Z,41.33
2018-11-21T09:41:22.253Z,56.70
2018-11-21T09:43:50.846Z,49.73
2018-11-21T09:46:19.277Z,36.27
2018-11-21T09:48:47.759Z,58.20
2018-11-21T09:51:16.209Z,54.47
2018-11-21T09:53:44.655Z,57.17
2018-11-21T09:56:13.145Z,44.90
2018-11-21T09:58:41.575Z,49.07
2018-11-21T10:01:46.814Z,41.93
2018-11-21T10:04:16.686Z,47.97
2018-11-21T10:06:45.904Z,44.43
2018-11-21T10:09:16.743Z,41.20
2018-11-21T10:11:45.173Z,40.70
2018-11-21T10:14:13.711Z,35.57
2018-11-21T10:16:42.362Z,47.47
2018-11-21T10:19:10.782Z,43.40
2018-11-21T10:21:39.342Z,41.50
2018-11-21T10:24:07.786Z,42.63
2018-11-21T10:26:36.228Z,45.43
2018-11-21T10:29:05.188Z,43.27
2018-11-21T10:31:33.618Z,42.77
2018-11-21T10:34:02.062Z,36.90
2018-11-21T10:36:30.490Z,44.90
2018-11-21T10:38:58.922Z,47.27
2018-11-21T10:41:27.382Z,42.83
2018-11-21T10:43:55.796Z,39.87
2018-11-21T10:46:24.208Z,37.90
2018-11-21T10:48:52.768Z,37.77
2018-11-21T10:51:21.232Z,48.73
2018-11-21T10:53:50.832Z,39.33
2018-11-21T10:56:19.283Z,38.43
2018-11-21T10:58:47.703Z,38.80
2018-11-21T11:01:34.157Z,37.97
2018-11-21T11:04:09.243Z,44.33
2018-11-21T11:07:02.629Z,41.23
2018-11-21T11:09:49.132Z,37.57
2018-11-21T11:12:35.654Z,44.20
2018-11-21T11:15:35.368Z,44.30
2018-11-21T11:18:21.699Z,49.53
2018-11-21T11:21:18.291Z,45.10
2018-11-21T11:23:59.335Z,42.90
2018-11-21T11:26:55.965Z,40.90
2018-11-21T11:29:52.553Z,45.20
2018-11-21T11:32:55.317Z,39.30
2018-11-21T11:35:45.515Z,38.63
2018-11-21T11:38:39.029Z,44.27
2018-11-21T11:41:41.883Z,42.43
2018-11-21T11:44:28.123Z,45.13
2018-11-21T11:47:24.949Z,38.23
2018-11-21T11:50:10.466Z,40.63
2018-11-21T11:53:00.838Z,40.30
2018-11-21T11:55:47.338Z,38.80
2018-11-21T11:58:28.334Z,38.60
2018-11-21T12:01:14.766Z,37.23
2018-11-21T12:04:00.968Z,36.87
2018-11-21T12:06:41.138Z,36.57
2018-11-21T12:09:46.880Z,40.43
2018-11-21T12:12:44.063Z,36.87
2018-11-21T12:15:30.262Z,31.57
2018-11-21T12:18:20.621Z,37.40
2018-11-21T12:21:03.202Z,41.17
2018-11-21T12:23:49.466Z,38.53
2018-11-21T12:26:33.968Z,35.40
2018-11-21T12:29:41.797Z,36.73
2018-11-21T12:32:27.157Z,30.77
2018-11-21T12:35:14.818Z,36.57
2018-11-21T12:38:14.543Z,34.87
2018-11-21T12:41:10.853Z,36.67
2018-11-21T12:44:10.523Z,35.03
2018-11-21T12:46:56.570Z,38.93
2018-11-21T12:49:53.776Z,42.13
2018-11-21T12:52:42.605Z,37.17
2018-11-21T12:55:45.517Z,40.47
2018-11-21T12:58:31.965Z,38.90
2018-11-21T13:01:25.292Z,34.60
2018-11-21T13:03:59.152Z,39.00
2018-11-21T13:06:52.769Z,41.77
2018-11-21T13:09:43.259Z,40.57
2018-11-21T13:12:30.901Z,39.63
2018-11-21T13:15:24.291Z,39.00
2018-11-21T13:18:46.677Z,34.60
2018-11-21T13:21:42.778Z,39.13
2018-11-21T13:24:28.840Z,39.37
2018-11-21T13:27:29.245Z,37.50
2018-11-21T13:30:32.015Z,35.67
2018-11-21T13:33:19.819Z,35.07
2018-11-21T13:36:12.727Z,39.47
2018-11-21T13:38:59.319Z,36.70
2018-11-21T13:42:02.178Z,37.63
2018-11-21T13:44:49.746Z,37.57
2018-11-21T13:47:40.175Z,36.23
2018-11-21T13:50:43.476Z,40.13
2018-11-21T13:53:43.168Z,41.57
2018-11-21T13:56:11.648Z,40.30
2018-11-21T13:58:41.230Z,42.03
2018-11-21T14:01:09.932Z,42.07
2018-11-21T14:03:38.542Z,44.30
2018-11-21T14:06:07.042Z,39.33
2018-11-21T14:08:35.630Z,39.17
2018-11-21T14:11:04.312Z,39.20
2018-11-21T14:13:32.776Z,39.70
2018-11-21T14:16:01.414Z,40.67
2018-11-21T14:18:30.213Z,45.03
2018-11-21T14:20:58.788Z,39.33
2018-11-21T14:23:27.231Z,43.33
2018-11-21T14:25:55.710Z,46.13
2018-11-21T14:28:24.155Z,39.20
2018-11-21T14:30:52.753Z,36.20
2018-11-21T14:33:21.193Z,38.63
2018-11-21T14:35:52.301Z,41.53
2018-11-21T14:38:18.193Z,39.80
2018-11-21T14:40:46.861Z,45.27
2018-11-21T14:43:15.271Z,36.27
2018-11-21T14:45:43.745Z,35.77
2018-11-21T14:48:12.185Z,35.70
2018-11-21T14:50:41.111Z,39.27
2018-11-21T14:53:09.573Z,37.00
2018-11-21T14:55:38.201Z,38.63
2018-11-21T14:58:06.677Z,38.53
2018-11-21T15:00:35.190Z,36.07
2018-11-21T15:03:21.678Z,40.10
2018-11-21T15:05:43.734Z,43.37
2018-11-21T15:08:13.087Z,41.77
2018-11-21T15:10:41.508Z,40.60
2018-11-21T15:13:10.010Z,37.57
2018-11-21T15:15:38.444Z,44.33
2018-11-21T15:18:07.060Z,43.73
2018-11-21T15:20:35.552Z,41.17
2018-11-21T15:23:04.036Z,40.23
2018-11-21T15:25:32.468Z,44.23
2018-11-21T15:28:00.888Z,37.43
2018-11-21T15:30:30.497Z,38.20
2018-11-21T15:32:59.576Z,38.70
2018-11-21T15:35:27.986Z,42.83
2018-11-21T15:37:56.454Z,43.27
2018-11-21T15:40:27.349Z,44.03
2018-11-21T15:42:55.964Z,46.30
2018-11-21T15:45:27.016Z,47.43
2018-11-21T15:47:57.172Z,44.13
2018-11-21T15:50:25.925Z,44.53
2018-11-21T15:52:54.419Z,44.20
2018-11-21T15:55:23.005Z,46.47
2018-11-21T15:57:51.483Z,48.60
2018-11-21T16:00:24.756Z,47.20
2018-11-21T16:02:55.121Z,44.80
2018-11-21T16:05:23.872Z,43.23
2018-11-21T16:07:52.319Z,48.07
2018-11-21T16:10:22.813Z,46.80
2018-11-21T16:12:51.248Z,51.07
2018-11-21T16:15:22.709Z,49.60
2018-11-21T16:17:51.191Z,46.37
2018-11-21T16:20:19.984Z,53.53
2018-11-21T16:22:48.382Z,48.50
2018-11-21T16:25:18.218Z,49.77
2018-11-21T16:27:46.773Z,45.07
2018-11-21T16:30:16.995Z,42.67
2018-11-21T16:32:45.922Z,43.90
2018-11-21T16:35:14.909Z,41.43
2018-11-21T16:37:43.730Z,38.93
2018-11-21T16:40:15.211Z,44.60
2018-11-21T16:42:43.903Z,41.80
2018-11-21T16:45:14.382Z,39.93
2018-11-21T16:47:42.902Z,40.23
2018-11-21T16:50:13.891Z,44.07
2018-11-21T16:52:42.431Z,42.87
2018-11-21T16:55:12.822Z,41.80
2018-11-21T16:57:41.671Z,37.90
2018-11-21T17:00:12.846Z,40.07
2018-11-21T17:02:41.285Z,41.77
2018-11-21T17:05:11.366Z,39.63
2018-11-21T17:07:40.231Z,39.80
2018-11-21T17:10:13.822Z,43.87
2018-11-21T17:12:42.775Z,42.93
2018-11-21T17:15:13.471Z,38.80
2018-11-21T17:17:42.276Z,41.80
2018-11-21T17:20:16.402Z,41.43
2018-11-21T17:22:45.973Z,36.63
2018-11-21T17:25:15.995Z,41.80
2018-11-21T17:27:45.041Z,41.50
2018-11-21T17:30:14.933Z,39.57
2018-11-21T17:32:43.565Z,39.40
2018-11-21T17:35:13.333Z,41.90
2018-11-21T17:37:41.873Z,43.60
2018-11-21T17:40:18.906Z,39.13
2018-11-21T17:42:47.466Z,37.63
2018-11-21T17:45:16.631Z,40.43
2018-11-21T17:47:45.163Z,39.77
2018-11-21T17:50:15.308Z,37.30
2018-11-21T17:52:44.149Z,37.07
2018-11-21T17:55:14.076Z,43.00
2018-11-21T17:57:42.556Z,40.87
2018-11-21T18:00:13.102Z,34.60
2018-11-21T18:02:41.644Z,35.07
2018-11-21T18:05:11.053Z,42.57
2018-11-21T18:07:39.523Z,34.73
2018-11-21T18:10:13.468Z,35.20
2018-11-21T18:12:42.113Z,36.90
2018-11-21T18:15:11.551Z,34.73
2018-11-21T18:17:40.586Z,35.47
2018-11-21T18:20:10.264Z,34.33
2018-11-21T18:22:38.951Z,35.97
2018-11-21T18:25:10.216Z,35.60
2018-11-21T18:27:38.674Z,35.23
2018-11-21T18:30:10.514Z,35.03
2018-11-21T18:32:39.439Z,31.23
2018-11-21T18:35:09.103Z,35.50
2018-11-21T18:37:37.590Z,32.23
2018-11-21T18:40:09.206Z,34.30
2018-11-21T18:42:37.656Z,31.27
2018-11-21T18:45:09.331Z,32.87
2018-11-21T18:47:37.981Z,36.27
2018-11-21T18:50:11.205Z,34.23
2018-11-21T18:52:37.503Z,36.23
2018-11-21T18:55:08.870Z,34.87
2018-11-21T18:57:59.287Z,36.80
2018-11-21T19:00:30.686Z,36.17
2018-11-21T19:03:01.753Z,36.17
2018-11-21T19:05:30.167Z,34.33
2018-11-21T19:07:58.723Z,39.60
2018-11-21T19:10:27.279Z,34.27
2018-11-21T19:12:55.713Z,41.17
2018-11-21T19:15:24.161Z,37.67
2018-11-21T19:17:52.637Z,39.57
2018-11-21T19:20:24.163Z,37.03
2018-11-21T19:22:52.865Z,35.47
2018-11-21T19:25:21.403Z,38.63
2018-11-21T19:27:49.845Z,37.93
2018-11-21T19:30:19.232Z,39.83
2018-11-21T19:32:47.728Z,42.00
2018-11-21T19:35:16.184Z,38.73
2018-11-21T19:37:44.665Z,40.13
2018-11-21T19:40:14.261Z,39.07
2018-11-21T19:42:42.746Z,44.57
2018-11-21T19:45:13.008Z,42.93
2018-11-21T19:47:41.672Z,44.23
2018-11-21T19:50:12.346Z,42.57
2018-11-21T19:52:41.811Z,39.00
2018-11-21T19:55:12.628Z,41.63
2018-11-21T19:57:41.810Z,49.43
2018-11-21T20:00:12.749Z,44.03
2018-11-21T20:02:41.216Z,47.93
2018-11-21T20:05:09.680Z,42.23
2018-11-21T20:07:38.940Z,43.37
2018-11-21T20:10:08.475Z,37.00
2018-11-21T20:12:40.034Z,43.27
